Denver, Colorado
Current Conditions -  °F | °C
As of 4:58 AM on Thursday 27 Nov 2014 (Local Time) from KBKF Reporting Station
Scattered Clouds Scattered Clouds  
Wind Chill: 33°   Ceiling: Unl
Heat Index: 40°   Visibility: 10mi
Dew Point: 22°   Wind: 10mph
Humidity: 49%   Direction: 180°S
Pressure: 30.23"   Gusts: NA
Location:  39.74°N, 104.99°W
Report Text: KBKF 271158Z 18009KT 10SM SCT220 04/M06 A3023 RMK AO2A SLP241 T00421058 10049 21041 58007
Loading
Personal Weather Stations






























Interactive Weather Map New forecast layout! Learn more

10-Day Weather Forecast

Advertisements
Track Severe Weather on mobile